createdAt,value
2023-02-22T00:00:19.509Z,9.70
2023-02-22T00:03:41.706Z,13.02
2023-02-22T00:06:45.410Z,12.57
2023-02-22T00:09:47.598Z,9.48
2023-02-22T00:12:50.604Z,10.07
2023-02-22T00:15:52.779Z,9.80
2023-02-22T00:18:54.863Z,11.45
2023-02-22T00:21:58.076Z,8.25
2023-02-22T00:25:00.021Z,9.80
2023-02-22T00:28:03.745Z,10.80
2023-02-22T00:31:07.609Z,9.63
2023-02-22T00:34:09.857Z,10.00
2023-02-22T00:37:11.842Z,14.90
2023-02-22T00:40:17.988Z,11.55
2023-02-22T00:43:19.800Z,10.68
2023-02-22T00:46:23.197Z,11.18
2023-02-22T00:49:28.078Z,11.40
2023-02-22T00:52:30.186Z,10.98
2023-02-22T00:55:35.096Z,11.40
2023-02-22T00:58:37.248Z,11.00
2023-02-22T01:01:39.175Z,10.68
2023-02-22T01:04:41.540Z,11.68
2023-02-22T01:07:44.041Z,12.48
2023-02-22T01:10:46.683Z,12.98
2023-02-22T01:13:48.612Z,13.63
2023-02-22T01:16:51.029Z,13.45
2023-02-22T01:19:54.101Z,13.20
2023-02-22T01:22:59.645Z,13.57
2023-02-22T01:29:05.011Z,10.70
2023-02-22T01:32:07.354Z,11.25
2023-02-22T01:35:14.307Z,14.45
2023-02-22T01:38:17.288Z,13.68
2023-02-22T01:41:19.452Z,14.05
2023-02-22T01:44:31.378Z,11.63
2023-02-22T01:47:34.537Z,15.13
2023-02-22T01:50:42.211Z,13.13
2023-02-22T01:53:47.647Z,12.77
2023-02-22T01:56:57.035Z,13.27
2023-02-22T02:00:10.083Z,13.13
2023-02-22T02:03:27.487Z,11.98
2023-02-22T02:06:33.590Z,12.48
2023-02-22T02:09:37.382Z,12.63
2023-02-22T02:12:42.197Z,14.32
2023-02-22T02:18:46.989Z,13.93
2023-02-22T02:22:07.013Z,14.13
2023-02-22T02:25:31.176Z,12.90
2023-02-22T02:28:54.891Z,12.20
2023-02-22T02:32:28.623Z,14.90
2023-02-22T02:35:47.891Z,13.40
2023-02-22T02:38:59.332Z,11.05
2023-02-22T02:42:07.442Z,11.43
2023-02-22T02:45:17.635Z,12.75
2023-02-22T02:48:23.612Z,11.90
2023-02-22T02:51:40.370Z,10.75
2023-02-22T02:54:43.391Z,10.98
2023-02-22T02:57:45.575Z,11.32
2023-02-22T03:00:50.394Z,11.38
2023-02-22T03:04:03.077Z,11.38
2023-02-22T03:07:20.244Z,13.43
2023-02-22T03:10:38.891Z,10.10
2023-02-22T03:14:02.131Z,12.00
2023-02-22T03:17:12.122Z,11.18
2023-02-22T03:20:32.048Z,15.82
2023-02-22T03:23:55.591Z,11.80
2023-02-22T03:27:23.658Z,9.93
2023-02-22T03:30:33.906Z,10.32
2023-02-22T03:34:08.747Z,10.95
2023-02-22T03:37:34.266Z,8.98
2023-02-22T03:40:46.534Z,10.45
2023-02-22T03:43:54.690Z,9.73
2023-02-22T03:47:02.070Z,11.05
2023-02-22T03:50:52.767Z,9.13
2023-02-22T03:54:04.954Z,11.50
2023-02-22T03:57:22.454Z,15.45
2023-02-22T04:00:32.080Z,9.45
2023-02-22T04:03:34.253Z,9.88
2023-02-22T04:06:37.009Z,10.00
2023-02-22T04:09:39.590Z,8.05
2023-02-22T04:12:41.777Z,8.15
2023-02-22T04:15:43.961Z,7.30
2023-02-22T04:18:47.788Z,8.43
2023-02-22T04:21:53.562Z,8.98
2023-02-22T04:25:00.233Z,8.85
2023-02-22T04:28:03.390Z,8.90
2023-02-22T04:31:14.500Z,8.32
2023-02-22T04:34:16.926Z,9.25
2023-02-22T04:37:19.270Z,9.15
2023-02-22T04:40:21.632Z,9.27
2023-02-22T04:43:23.569Z,8.57
2023-02-22T04:46:28.397Z,10.10
2023-02-22T04:49:30.796Z,8.27
2023-02-22T04:52:33.883Z,15.25
2023-02-22T04:55:35.805Z,8.32
2023-02-22T04:58:38.004Z,7.03
2023-02-22T05:01:40.056Z,9.38
2023-02-22T05:04:42.295Z,7.65
2023-02-22T05:07:44.902Z,7.80
2023-02-22T05:10:47.053Z,7.28
2023-02-22T05:13:49.262Z,10.27
2023-02-22T05:16:51.854Z,7.22
2023-02-22T05:19:53.729Z,7.75
2023-02-22T05:22:56.887Z,9.90
2023-02-22T05:25:58.917Z,8.75
2023-02-22T05:29:01.096Z,7.95
2023-02-22T05:32:03.278Z,11.27
2023-02-22T05:35:06.095Z,7.68
2023-02-22T05:38:08.392Z,8.38
2023-02-22T05:41:12.559Z,7.50
2023-02-22T05:44:14.752Z,10.55
2023-02-22T05:47:16.833Z,9.05
2023-02-22T05:50:19.917Z,10.00
2023-02-22T05:53:23.839Z,9.05
2023-02-22T05:56:28.393Z,11.55
2023-02-22T05:59:30.640Z,8.77
2023-02-22T06:02:33.880Z,9.30
2023-02-22T06:05:37.447Z,7.57
2023-02-22T06:08:39.737Z,8.33
2023-02-22T06:11:41.823Z,8.55
2023-02-22T06:14:46.036Z,13.65
2023-02-22T06:20:50.978Z,8.23
2023-02-22T06:23:53.249Z,9.65
2023-02-22T06:27:00.440Z,7.53
2023-02-22T06:30:03.164Z,7.70
2023-02-22T06:33:05.076Z,7.90
2023-02-22T06:36:08.010Z,20.38
2023-02-22T06:39:12.900Z,7.65
2023-02-22T06:42:15.141Z,7.60
2023-02-22T06:45:18.330Z,6.07
2023-02-22T06:48:20.542Z,7.07
2023-02-22T06:51:22.828Z,5.90
2023-02-22T06:54:25.016Z,9.00
2023-02-22T06:57:26.980Z,6.60
2023-02-22T07:00:32.254Z,5.35
2023-02-22T07:03:35.900Z,9.40
2023-02-22T07:06:38.468Z,7.75
2023-02-22T07:09:40.483Z,6.70
2023-02-22T07:12:42.751Z,7.25
2023-02-22T07:15:44.990Z,8.52
2023-02-22T07:18:50.833Z,6.93
2023-02-22T07:21:59.360Z,7.50
2023-02-22T07:25:01.835Z,4.60
2023-02-22T07:28:04.023Z,11.90
2023-02-22T07:31:06.267Z,7.38
2023-02-22T07:34:08.225Z,6.35
2023-02-22T07:37:10.626Z,7.60
2023-02-22T07:40:12.768Z,11.10
2023-02-22T07:43:24.632Z,7.07
2023-02-22T07:46:27.875Z,6.25
2023-02-22T07:49:30.194Z,7.25
2023-02-22T07:52:32.102Z,8.35
2023-02-22T07:55:35.013Z,7.90
2023-02-22T07:58:37.175Z,7.18
2023-02-22T08:01:40.174Z,8.05
2023-02-22T08:04:42.103Z,11.00
2023-02-22T08:07:44.327Z,15.25
2023-02-22T08:10:46.707Z,8.98
2023-02-22T08:13:48.869Z,9.48
2023-02-22T08:16:50.895Z,6.65
2023-02-22T08:19:53.098Z,8.73
2023-02-22T08:22:56.003Z,7.15
2023-02-22T08:26:04.937Z,6.30
2023-02-22T08:29:07.174Z,8.80
2023-02-22T08:32:09.446Z,8.10
2023-02-22T08:35:14.052Z,6.90
2023-02-22T08:38:23.126Z,10.00
2023-02-22T08:41:25.103Z,8.38
2023-02-22T08:44:27.285Z,13.32
2023-02-22T08:47:29.246Z,7.53
2023-02-22T08:50:35.749Z,7.88
2023-02-22T08:53:38.381Z,8.15
2023-02-22T08:56:40.484Z,7.43
2023-02-22T08:59:42.894Z,8.27
2023-02-22T09:02:45.366Z,9.77
2023-02-22T09:05:47.675Z,6.97
2023-02-22T09:08:50.068Z,9.13
2023-02-22T09:11:53.186Z,8.18
2023-02-22T09:14:55.421Z,8.43
2023-02-22T09:17:57.645Z,7.30
2023-02-22T09:20:59.991Z,6.90
2023-02-22T09:24:08.489Z,7.32
2023-02-22T09:27:12.212Z,6.45
2023-02-22T09:30:26.582Z,8.43
2023-02-22T09:33:28.963Z,7.95
2023-02-22T09:36:30.863Z,6.97
2023-02-22T09:39:37.514Z,8.27
2023-02-22T09:42:45.652Z,6.97
2023-02-22T09:46:19.783Z,7.57
2023-02-22T09:49:29.557Z,8.80
2023-02-22T09:52:40.100Z,12.30
2023-02-22T09:55:53.430Z,8.40
2023-02-22T09:59:00.408Z,9.73
2023-02-22T10:02:26.915Z,7.43
2023-02-22T10:05:38.086Z,9.65
2023-02-22T10:08:41.814Z,10.02
2023-02-22T10:12:11.945Z,10.05
2023-02-22T10:15:16.710Z,8.18
2023-02-22T10:18:34.065Z,9.45
2023-02-22T10:22:00.229Z,9.38
2023-02-22T10:25:05.285Z,8.65
2023-02-22T10:28:18.762Z,8.18
2023-02-22T10:31:28.424Z,10.02
2023-02-22T10:34:41.518Z,9.98
2023-02-22T10:37:44.821Z,7.45
2023-02-22T10:41:09.901Z,6.93
2023-02-22T10:44:12.125Z,7.40
2023-02-22T10:47:17.859Z,5.90
2023-02-22T10:50:21.775Z,6.50
2023-02-22T10:53:23.748Z,5.82
2023-02-22T10:56:27.770Z,6.30
2023-02-22T10:59:35.457Z,7.80
2023-02-22T11:02:37.994Z,9.20
2023-02-22T11:05:41.269Z,6.22
2023-02-22T11:08:44.104Z,7.95
2023-02-22T11:11:48.109Z,6.72
2023-02-22T11:14:50.415Z,9.00
2023-02-22T11:17:55.723Z,5.40
2023-02-22T11:21:11.763Z,7.18
2023-02-22T11:30:46.730Z,5.70
2023-02-22T11:37:38.249Z,8.02
2023-02-22T11:40:48.718Z,5.38
2023-02-22T11:43:51.955Z,13.82
2023-02-22T11:46:57.131Z,6.50
2023-02-22T11:49:59.192Z,9.90
2023-02-22T11:54:22.149Z,8.60
2023-02-22T11:58:08.426Z,9.20
2023-02-22T12:05:40.710Z,5.90
2023-02-22T12:09:04.177Z,6.32
2023-02-22T12:12:18.607Z,9.85
2023-02-22T12:19:19.500Z,6.80
2023-02-22T12:22:38.990Z,10.20
2023-02-22T12:26:11.786Z,7.82
2023-02-22T12:29:27.302Z,6.85
2023-02-22T12:32:59.563Z,15.02
2023-02-22T12:36:02.324Z,9.85
2023-02-22T12:39:29.340Z,13.77
2023-02-22T12:42:50.539Z,14.68
2023-02-22T12:46:26.732Z,13.32
2023-02-22T12:49:49.931Z,14.27
2023-02-22T12:53:00.140Z,15.45
2023-02-22T12:56:32.509Z,10.07
2023-02-22T12:59:57.741Z,15.70
2023-02-22T13:03:13.616Z,8.82
2023-02-22T13:06:18.847Z,6.85
2023-02-22T13:09:56.268Z,5.95
2023-02-22T13:13:26.289Z,9.35
2023-02-22T13:16:53.949Z,9.90
2023-02-22T13:20:14.443Z,7.18
2023-02-22T13:23:55.074Z,10.27
2023-02-22T13:27:04.230Z,12.00
2023-02-22T13:31:07.802Z,7.85
2023-02-22T13:34:26.253Z,4.30
2023-02-22T13:38:19.451Z,9.30
2023-02-22T13:41:32.931Z,6.13
2023-02-22T13:45:08.574Z,10.77
2023-02-22T13:48:24.751Z,8.25
2023-02-22T13:51:46.455Z,10.98
2023-02-22T13:55:00.357Z,6.00
2023-02-22T13:58:11.875Z,6.70
2023-02-22T14:01:41.739Z,8.70
2023-02-22T14:04:44.278Z,11.90
2023-02-22T14:07:49.554Z,11.25
2023-02-22T14:10:55.959Z,13.95
2023-02-22T14:14:01.180Z,6.97
2023-02-22T14:17:20.918Z,11.60
2023-02-22T14:20:35.473Z,8.13
2023-02-22T14:23:40.897Z,6.15
2023-02-22T14:26:59.574Z,9.55
2023-02-22T14:30:01.807Z,8.48
2023-02-22T14:33:44.238Z,9.70
2023-02-22T14:37:01.221Z,8.57
2023-02-22T14:40:20.125Z,4.65
2023-02-22T14:43:36.823Z,6.93
2023-02-22T14:46:55.087Z,8.93
2023-02-22T14:50:33.212Z,7.72
2023-02-22T14:53:46.775Z,9.05
2023-02-22T14:57:15.124Z,7.50
2023-02-22T15:00:30.894Z,6.22
2023-02-22T15:03:38.220Z,8.95
2023-02-22T15:06:40.689Z,10.43
2023-02-22T15:09:47.198Z,8.30
2023-02-22T15:13:10.802Z,7.88
2023-02-22T15:16:15.786Z,10.45
2023-02-22T15:19:27.177Z,9.70
2023-02-22T15:22:36.112Z,6.43
2023-02-22T15:25:39.435Z,6.25
2023-02-22T15:28:42.809Z,6.15
2023-02-22T15:31:49.968Z,6.70
2023-02-22T15:34:52.128Z,5.95
2023-02-22T15:38:16.556Z,6.05
2023-02-22T15:41:31.629Z,5.13
2023-02-22T15:44:42.476Z,4.43
2023-02-22T15:47:44.607Z,7.25
2023-02-22T15:51:09.423Z,5.75
2023-02-22T15:54:26.641Z,8.07
2023-02-22T15:57:30.720Z,5.88
2023-02-22T16:00:40.317Z,5.82
2023-02-22T16:03:51.579Z,4.70
2023-02-22T16:07:04.913Z,5.60
2023-02-22T16:10:09.417Z,5.27
2023-02-22T16:13:31.468Z,4.68
2023-02-22T16:16:37.359Z,4.32
2023-02-22T16:19:44.916Z,5.70
2023-02-22T16:22:49.803Z,12.18
2023-02-22T16:26:07.920Z,6.43
2023-02-22T16:29:25.000Z,6.32
2023-02-22T16:32:27.408Z,5.05
2023-02-22T16:35:30.178Z,4.63
2023-02-22T16:38:33.820Z,8.30
2023-02-22T16:41:36.951Z,7.10
2023-02-22T16:44:39.314Z,5.93
2023-02-22T16:47:47.144Z,5.45
2023-02-22T16:50:54.328Z,6.38
2023-02-22T16:53:57.309Z,4.68
2023-02-22T16:57:02.813Z,4.53
2023-02-22T17:00:10.456Z,6.30
2023-02-22T17:03:20.986Z,6.30
2023-02-22T17:06:23.731Z,5.75
2023-02-22T17:09:26.462Z,6.03
2023-02-22T17:12:32.438Z,4.43
2023-02-22T17:15:37.212Z,6.00
2023-02-22T17:18:40.283Z,6.65
2023-02-22T17:21:42.385Z,5.63
2023-02-22T17:25:00.012Z,7.20
2023-02-22T17:31:05.663Z,8.50
2023-02-22T17:34:08.545Z,7.57
2023-02-22T17:37:10.964Z,8.52
2023-02-22T17:40:15.083Z,8.35
2023-02-22T17:43:19.485Z,11.23
2023-02-22T17:46:22.056Z,7.63
2023-02-22T17:49:24.477Z,10.82
2023-02-22T17:52:30.622Z,13.68
2023-02-22T17:55:38.339Z,10.30
2023-02-22T17:58:41.455Z,8.55
2023-02-22T18:01:44.560Z,12.97
2023-02-22T18:04:48.452Z,13.68
2023-02-22T18:07:51.456Z,17.05
2023-02-22T18:10:56.812Z,15.48
2023-02-22T18:13:59.996Z,13.80
2023-02-22T18:17:02.576Z,14.52
2023-02-22T18:20:15.535Z,10.40
2023-02-22T18:23:21.300Z,11.63
2023-02-22T18:26:25.543Z,12.82
2023-02-22T18:29:29.072Z,12.63
2023-02-22T18:32:32.077Z,11.15
2023-02-22T18:35:34.630Z,14.13
2023-02-22T18:38:44.013Z,11.07
2023-02-22T18:41:48.793Z,14.13
2023-02-22T18:44:53.068Z,12.57
2023-02-22T18:47:55.208Z,16.57
2023-02-22T18:51:01.528Z,11.02
2023-02-22T18:54:13.176Z,10.40
2023-02-22T18:57:17.298Z,13.25
2023-02-22T19:00:28.971Z,13.05
2023-02-22T19:03:38.477Z,12.27
2023-02-22T19:06:48.340Z,12.18
2023-02-22T19:09:51.945Z,14.82
2023-02-22T19:12:58.397Z,11.63
2023-02-22T19:16:10.502Z,13.57
2023-02-22T19:19:15.015Z,10.60
2023-02-22T19:22:17.310Z,11.23
2023-02-22T19:25:19.377Z,10.75
2023-02-22T19:28:28.872Z,11.57
2023-02-22T19:31:34.090Z,9.50
2023-02-22T19:34:37.817Z,9.70
2023-02-22T19:37:42.183Z,14.23
2023-02-22T19:41:16.278Z,13.20
2023-02-22T19:44:29.616Z,12.07
2023-02-22T19:47:34.841Z,9.27
2023-02-22T19:50:48.740Z,8.45
2023-02-22T19:53:52.148Z,11.23
2023-02-22T19:56:58.846Z,10.13
2023-02-22T20:00:10.852Z,13.57
2023-02-22T20:03:15.690Z,13.25
2023-02-22T20:06:18.133Z,13.30
2023-02-22T20:09:40.419Z,13.57
2023-02-22T20:12:45.651Z,11.25
2023-02-22T20:15:50.824Z,8.10
2023-02-22T20:18:54.937Z,10.88
2023-02-22T20:21:57.617Z,9.93
2023-02-22T20:25:00.353Z,12.60
2023-02-22T20:28:02.593Z,11.80
2023-02-22T20:31:11.367Z,9.13
2023-02-22T20:34:13.789Z,11.27
2023-02-22T20:37:16.393Z,13.65
2023-02-22T20:40:18.880Z,8.80
2023-02-22T20:43:21.998Z,11.48
2023-02-22T20:46:25.377Z,14.68
2023-02-22T20:49:28.834Z,12.90
2023-02-22T20:52:31.501Z,12.02
2023-02-22T20:55:34.288Z,9.55
2023-02-22T20:58:36.458Z,11.30
2023-02-22T21:01:39.945Z,14.95
2023-02-22T21:04:42.191Z,15.05
2023-02-22T21:07:45.090Z,10.45
2023-02-22T21:10:48.403Z,13.13
2023-02-22T21:13:52.092Z,13.65
2023-02-22T21:16:54.397Z,8.82
2023-02-22T21:19:59.039Z,10.00
2023-02-22T21:23:03.299Z,12.00
2023-02-22T21:26:07.387Z,21.73
2023-02-22T21:29:10.806Z,18.60
2023-02-22T21:35:16.839Z,34.90
2023-02-22T21:38:21.023Z,29.08
2023-02-22T21:41:27.961Z,40.30
2023-02-22T21:44:30.707Z,20.55
2023-02-22T21:47:35.940Z,40.40
2023-02-22T21:50:38.412Z,37.95
2023-02-22T21:53:48.219Z,43.85
2023-02-22T21:56:50.970Z,50.13
2023-02-22T21:59:53.468Z,54.40
2023-02-22T22:03:09.888Z,53.03
2023-02-22T22:06:13.720Z,56.83
2023-02-22T22:09:19.695Z,55.60
2023-02-22T22:12:25.969Z,33.78
2023-02-22T22:15:42.758Z,20.02
2023-02-22T22:18:47.292Z,13.85
2023-02-22T22:21:53.514Z,13.70
2023-02-22T22:24:55.787Z,10.60
2023-02-22T22:27:58.145Z,11.98
2023-02-22T22:31:00.231Z,8.98
2023-02-22T22:34:02.899Z,8.27
2023-02-22T22:37:05.116Z,10.30
2023-02-22T22:40:15.880Z,8.05
2023-02-22T22:43:18.318Z,7.10
2023-02-22T22:46:21.684Z,7.55
2023-02-22T22:49:26.142Z,8.00
2023-02-22T22:52:31.558Z,8.55
2023-02-22T22:55:33.559Z,7.32
2023-02-22T22:58:36.869Z,6.13
2023-02-22T23:01:44.713Z,9.05
2023-02-22T23:04:52.130Z,6.00
2023-02-22T23:07:56.559Z,5.55
2023-02-22T23:10:59.097Z,7.43
2023-02-22T23:14:04.863Z,5.30
2023-02-22T23:17:14.270Z,5.60
2023-02-22T23:20:17.314Z,29.05
2023-02-22T23:23:20.168Z,8.93
2023-02-22T23:26:26.950Z,7.55
2023-02-22T23:29:32.444Z,4.63
2023-02-22T23:32:35.268Z,6.82
2023-02-22T23:35:38.710Z,6.75
2023-02-22T23:38:42.571Z,6.33
2023-02-22T23:41:45.502Z,5.47
2023-02-22T23:44:48.179Z,5.50
2023-02-22T23:47:57.448Z,6.43
2023-02-22T23:50:59.903Z,4.85
2023-02-22T23:54:02.471Z,4.80
2023-02-22T23:57:06.417Z,4.80
